createdAt,value
2016-04-13T00:00:10.969Z,22.4
2016-04-13T00:01:11.800Z,22.3
2016-04-13T00:02:12.710Z,22.3
2016-04-13T00:03:13.415Z,22.2
2016-04-13T00:04:14.230Z,22.2
2016-04-13T00:05:15.311Z,22.1
2016-04-13T00:06:16.391Z,22.1
2016-04-13T00:07:17.473Z,22.1
2016-04-13T00:08:18.620Z,22
2016-04-13T00:09:19.623Z,22
2016-04-13T00:10:20.939Z,21.9
2016-04-13T00:11:22.397Z,21.9
2016-04-13T00:12:23.587Z,21.9
2016-04-13T00:13:24.917Z,21.8
2016-04-13T00:14:26.264Z,21.8
2016-04-13T00:15:27.689Z,21.7
2016-04-13T00:16:29.160Z,21.7
2016-04-13T00:17:30.725Z,21.7
2016-04-13T00:18:32.494Z,21.7
2016-04-13T00:19:33.511Z,21.7
2016-04-13T00:20:31.172Z,21.6
2016-04-13T00:21:28.956Z,21.6
2016-04-13T00:22:26.723Z,21.5
2016-04-13T00:23:24.508Z,21.5
2016-04-13T00:24:22.291Z,21.5
2016-04-13T00:25:20.057Z,21.5
2016-04-13T00:26:17.966Z,21.5
2016-04-13T00:27:15.625Z,21.5
2016-04-13T00:28:13.455Z,21.4
2016-04-13T00:29:14.474Z,21.4
2016-04-13T00:30:12.539Z,21.4
2016-04-13T00:31:10.557Z,21.3
2016-04-13T00:32:08.701Z,21.3
2016-04-13T00:33:06.626Z,21.3
2016-04-13T00:34:04.659Z,21.3
2016-04-13T00:35:02.677Z,21.3
2016-04-13T00:36:01.009Z,21.3
2016-04-13T00:36:58.745Z,21.3
2016-04-13T00:37:56.842Z,21.2
2016-04-13T00:38:57.859Z,21.2
2016-04-13T00:39:56.159Z,21.2
2016-04-13T00:40:54.444Z,21.1
2016-04-13T00:41:52.728Z,21.1
2016-04-13T00:42:51.012Z,21.1
2016-04-13T00:43:49.295Z,21.1
2016-04-13T00:44:47.595Z,21.1
2016-04-13T00:45:45.879Z,21.1
2016-04-13T00:46:44.179Z,21
2016-04-13T00:47:42.525Z,21
2016-04-13T00:48:43.544Z,21
2016-04-13T00:49:42.078Z,21
2016-04-13T00:50:40.627Z,21
2016-04-13T00:51:39.129Z,21
2016-04-13T00:52:38.038Z,20.9
2016-04-13T00:53:36.728Z,20.9
2016-04-13T00:54:35.513Z,20.9
2016-04-13T00:55:34.437Z,20.9
2016-04-13T00:56:33.111Z,20.9
2016-04-13T00:57:31.958Z,20.9
2016-04-13T00:58:32.976Z,20.9
2016-04-13T00:59:31.776Z,20.8
2016-04-13T01:00:30.701Z,20.8
2016-04-13T01:01:29.374Z,20.8
2016-04-13T01:02:28.284Z,20.8
2016-04-13T01:03:27.209Z,20.7
2016-04-13T01:04:26.257Z,20.7
2016-04-13T01:05:25.323Z,20.7
2016-04-13T01:06:24.357Z,20.7
2016-04-13T01:07:23.470Z,20.7
2016-04-13T01:08:24.598Z,20.7
2016-04-13T01:09:23.538Z,20.7
2016-04-13T01:10:22.835Z,20.7
2016-04-13T01:11:21.884Z,20.7
2016-04-13T01:12:21.187Z,20.6
2016-04-13T01:13:20.503Z,20.6
2016-04-13T01:14:19.911Z,20.6
2016-04-13T01:15:19.116Z,20.6
2016-04-13T01:16:18.401Z,20.6
2016-04-13T01:17:17.763Z,20.6
2016-04-13T01:18:18.781Z,20.6
2016-04-13T01:19:18.081Z,20.5
2016-04-13T01:20:17.505Z,20.5
2016-04-13T01:22:16.109Z,20.5
2016-04-13T01:23:15.299Z,20.5
2016-04-13T01:24:14.723Z,20.5
2016-04-13T01:25:13.914Z,20.5
2016-04-13T01:26:13.213Z,20.5
2016-04-13T01:27:12.575Z,20.5
2016-04-13T01:28:13.594Z,20.5
2016-04-13T01:29:12.908Z,20.4
2016-04-13T01:30:12.208Z,20.4
2016-04-13T01:31:11.508Z,20.4
2016-04-13T01:32:11.073Z,20.4
2016-04-13T01:33:10.622Z,20.4
2016-04-13T01:34:10.297Z,20.4
2016-04-13T01:35:09.737Z,20.4
2016-04-13T01:36:09.302Z,20.4
2016-04-13T01:37:08.914Z,20.4
2016-04-13T01:38:09.932Z,20.3
2016-04-13T01:39:09.498Z,20.3
2016-04-13T01:40:09.048Z,20.3
2016-04-13T01:41:08.723Z,20.3
2016-04-13T01:42:08.287Z,20.3
2016-04-13T01:43:07.837Z,20.3
2016-04-13T01:44:07.402Z,20.3
2016-04-13T01:45:06.827Z,20.3
2016-04-13T01:46:06.642Z,20.3
2016-04-13T01:47:06.364Z,20.3
2016-04-13T01:48:07.288Z,20.3
2016-04-13T01:49:07.087Z,20.3
2016-04-13T01:50:07.012Z,20.3
2016-04-13T01:51:06.717Z,20.3
2016-04-13T01:52:06.642Z,20.2
2016-04-13T01:53:06.333Z,20.3
2016-04-13T01:54:06.147Z,20.2
2016-04-13T01:55:05.989Z,20.2
2016-04-13T01:56:05.847Z,20.2
2016-04-13T01:57:05.737Z,20.2
2016-04-13T01:58:06.799Z,20.2
2016-04-13T01:59:06.671Z,20.2
2016-04-13T02:00:06.508Z,20.2
2016-04-13T02:01:06.338Z,20.2
2016-04-13T02:02:06.279Z,20.2
2016-04-13T02:03:06.109Z,20.2
2016-04-13T02:04:05.814Z,20.2
2016-04-13T02:05:05.626Z,20.2
2016-04-13T02:06:05.479Z,20.2
2016-04-13T02:07:05.330Z,20.1
2016-04-13T02:08:06.355Z,20.2
2016-04-13T02:09:06.159Z,20.2
2016-04-13T02:10:05.978Z,20.1
2016-04-13T02:11:05.795Z,20.1
2016-04-13T02:12:05.613Z,20.1
2016-04-13T02:13:05.539Z,20.1
2016-04-13T02:14:05.232Z,20.1
2016-04-13T02:15:05.298Z,20.1
2016-04-13T02:16:05.364Z,20.1
2016-04-13T02:17:05.509Z,20.1
2016-04-13T02:18:06.512Z,20.1
2016-04-13T02:19:06.593Z,20.1
2016-04-13T02:20:06.768Z,20.1
2016-04-13T02:21:06.709Z,20.1
2016-04-13T02:22:06.775Z,20.1
2016-04-13T02:23:06.825Z,20.1
2016-04-13T02:24:06.906Z,20.1
2016-04-13T02:25:06.956Z,20.1
2016-04-13T02:26:07.021Z,20.1
2016-04-13T02:27:07.148Z,20.1
2016-04-13T02:28:08.167Z,20.1
2016-04-13T02:29:08.232Z,20.1
2016-04-13T02:30:08.298Z,20.1
2016-04-13T02:31:08.363Z,20.1
2016-04-13T02:32:08.428Z,20.1
2016-04-13T02:33:08.493Z,20
2016-04-13T02:34:08.559Z,20.1
2016-04-13T02:35:08.608Z,20
2016-04-13T02:36:08.783Z,20
2016-04-13T02:37:09.067Z,20
2016-04-13T02:38:10.085Z,20.1
2016-04-13T02:39:10.416Z,20
2016-04-13T02:40:10.716Z,20
2016-04-13T02:41:11.030Z,20
2016-04-13T02:42:11.346Z,20
2016-04-13T02:43:11.786Z,20
2016-04-13T02:44:12.101Z,20
2016-04-13T02:45:12.306Z,20
2016-04-13T02:46:12.621Z,20
2016-04-13T02:47:13.125Z,20
2016-04-13T02:48:14.018Z,20
2016-04-13T02:49:14.333Z,20
2016-04-13T02:50:14.663Z,20
2016-04-13T02:51:14.979Z,20
2016-04-13T02:52:15.404Z,20
2016-04-13T02:53:15.609Z,20
2016-04-13T02:54:15.924Z,20
2016-04-13T02:55:16.239Z,20
2016-04-13T02:56:16.554Z,19.9
2016-04-13T02:57:16.932Z,20
2016-04-13T02:58:17.966Z,19.9
2016-04-13T02:59:18.266Z,19.9
2016-04-13T03:00:18.581Z,19.9
2016-04-13T03:01:18.897Z,19.9
2016-04-13T03:02:19.228Z,19.9
2016-04-13T03:03:19.558Z,19.9
2016-04-13T03:04:19.873Z,19.9
2016-04-13T03:05:20.189Z,20
2016-04-13T03:06:20.504Z,19.9
2016-04-13T03:07:20.991Z,19.9
2016-04-13T03:08:21.884Z,19.9
2016-04-13T03:09:22.214Z,19.9
2016-04-13T03:10:22.655Z,19.9
2016-04-13T03:11:22.845Z,19.9
2016-04-13T03:12:23.160Z,19.9
2016-04-13T03:13:23.491Z,19.9
2016-04-13T03:14:23.806Z,19.9
2016-04-13T03:15:24.247Z,19.9
2016-04-13T03:16:24.438Z,19.9
2016-04-13T03:17:24.815Z,19.9
2016-04-13T03:18:25.833Z,19.9
2016-04-13T03:19:26.148Z,19.9
2016-04-13T03:20:26.744Z,19.9
2016-04-13T03:21:27.360Z,19.9
2016-04-13T03:22:27.877Z,19.9
2016-04-13T03:23:28.442Z,19.9
2016-04-13T03:24:29.023Z,19.9
2016-04-13T03:25:29.573Z,19.9
2016-04-13T03:26:30.169Z,19.9
2016-04-13T03:27:30.797Z,19.9
2016-04-13T03:28:31.800Z,19.9
2016-04-13T03:29:32.365Z,19.9
2016-04-13T03:30:32.946Z,19.9
2016-04-13T03:31:33.511Z,19.9
2016-04-13T03:32:34.092Z,19.9
2016-04-13T03:33:34.657Z,19.9
2016-04-13T03:34:35.222Z,19.9
2016-04-13T03:35:35.803Z,19.9
2016-04-13T03:36:36.369Z,19.9
2016-04-13T03:37:36.996Z,19.9
2016-04-13T03:38:38.061Z,19.9
2016-04-13T03:39:38.595Z,19.9
2016-04-13T03:40:39.165Z,19.9
2016-04-13T03:41:39.746Z,19.9
2016-04-13T03:42:40.310Z,19.9
2016-04-13T03:43:40.892Z,19.8
2016-04-13T03:44:41.457Z,19.8
2016-04-13T03:45:42.147Z,19.9
2016-04-13T03:46:42.603Z,19.8
2016-04-13T03:47:43.231Z,19.8
2016-04-13T03:48:44.249Z,19.8
2016-04-13T03:49:44.829Z,19.8
2016-04-13T03:50:45.410Z,19.8
2016-04-13T03:51:45.976Z,19.8
2016-04-13T03:52:46.540Z,19.8
2016-04-13T03:53:47.137Z,19.8
2016-04-13T03:54:47.687Z,19.8
2016-04-13T03:55:48.253Z,19.8
2016-04-13T03:56:48.958Z,19.8
2016-04-13T03:57:49.461Z,19.8
2016-04-13T03:58:50.589Z,19.8
2016-04-13T03:59:51.045Z,19.8
2016-04-13T04:00:51.625Z,19.8
2016-04-13T04:01:52.222Z,19.8
2016-04-13T04:02:53.036Z,19.8
2016-04-13T04:03:53.852Z,19.8
2016-04-13T04:04:54.667Z,19.8
2016-04-13T04:05:55.607Z,19.8
2016-04-13T04:06:56.063Z,19.8
2016-04-13T04:07:56.941Z,19.8
2016-04-13T04:08:58.084Z,19.8
2016-04-13T04:09:58.540Z,19.8
2016-04-13T04:10:59.371Z,19.8
2016-04-13T04:12:00.186Z,19.8
2016-04-13T04:13:01.017Z,19.8
2016-04-13T04:14:01.848Z,19.8
2016-04-13T04:15:02.663Z,19.8
2016-04-13T04:16:03.494Z,19.8
2016-04-13T04:17:04.309Z,19.8
2016-04-13T04:18:05.312Z,19.8
2016-04-13T04:19:06.330Z,19.8
2016-04-13T04:20:07.067Z,19.7
2016-04-13T04:21:07.991Z,19.8
2016-04-13T04:22:08.681Z,19.8
2016-04-13T04:23:09.512Z,19.7
2016-04-13T04:24:10.328Z,19.7
2016-04-13T04:25:11.159Z,19.7
2016-04-13T04:26:11.989Z,19.8
2016-04-13T04:27:12.820Z,19.7
2016-04-13T04:28:13.698Z,19.7
2016-04-13T04:29:14.717Z,19.7
2016-04-13T04:30:15.531Z,19.7
2016-04-13T04:31:16.362Z,19.7
2016-04-13T04:32:17.193Z,19.7
2016-04-13T04:33:18.134Z,19.7
2016-04-13T04:34:18.855Z,19.7
2016-04-13T04:35:19.795Z,19.8
2016-04-13T04:36:20.485Z,19.8
2016-04-13T04:37:21.316Z,19.8
2016-04-13T04:38:22.194Z,19.8
2016-04-13T04:39:23.211Z,19.8
2016-04-13T04:40:24.042Z,19.8
2016-04-13T04:41:24.874Z,19.8
2016-04-13T04:42:25.689Z,19.8
2016-04-13T04:43:26.520Z,19.7
2016-04-13T04:44:27.350Z,19.8
2016-04-13T04:45:28.181Z,19.7
2016-04-13T04:46:29.121Z,19.7
2016-04-13T04:47:29.827Z,19.8
2016-04-13T04:48:30.720Z,19.7
2016-04-13T04:49:31.726Z,19.7
2016-04-13T04:50:32.557Z,19.7
2016-04-13T04:51:33.387Z,19.8
2016-04-13T04:52:34.202Z,19.8
2016-04-13T04:53:35.033Z,19.8
2016-04-13T04:54:35.848Z,19.7
2016-04-13T04:55:36.789Z,19.7
2016-04-13T04:56:37.510Z,19.8
2016-04-13T04:57:38.326Z,19.8
2016-04-13T04:58:39.360Z,19.8
2016-04-13T04:59:40.221Z,19.8
2016-04-13T05:00:41.053Z,19.8
2016-04-13T05:01:41.883Z,19.8
2016-04-13T05:02:42.698Z,19.8
2016-04-13T05:03:43.529Z,19.8
2016-04-13T05:04:44.344Z,19.8
2016-04-13T05:05:45.175Z,19.8
2016-04-13T05:06:46.006Z,19.8
2016-04-13T05:07:46.946Z,19.9
2016-04-13T05:08:47.824Z,19.8
2016-04-13T05:09:48.733Z,19.8
2016-04-13T05:10:49.673Z,19.9
2016-04-13T05:11:50.394Z,19.9
2016-04-13T05:12:51.319Z,19.9
2016-04-13T05:13:52.024Z,19.9
2016-04-13T05:14:52.855Z,19.9
2016-04-13T05:15:53.670Z,19.9
2016-04-13T05:16:54.501Z,19.9
2016-04-13T05:17:55.332Z,19.9
2016-04-13T05:18:56.210Z,19.9
2016-04-13T05:19:57.229Z,19.9
2016-04-13T05:20:58.168Z,19.9
2016-04-13T05:21:59.000Z,19.9
2016-04-13T05:22:59.704Z,19.9
2016-04-13T05:24:00.520Z,19.9
2016-04-13T05:25:01.367Z,19.9
2016-04-13T05:27:03.013Z,19.9
2016-04-13T05:28:03.828Z,19.9
2016-04-13T05:29:04.706Z,19.9
2016-04-13T05:30:05.740Z,19.9
2016-04-13T05:31:06.929Z,19.9
2016-04-13T05:32:07.886Z,19.9
2016-04-13T05:33:08.981Z,20
2016-04-13T05:34:10.157Z,19.9
2016-04-13T05:35:11.128Z,19.9
2016-04-13T05:36:12.193Z,19.9
2016-04-13T05:37:13.274Z,19.9
2016-04-13T05:38:14.355Z,19.9
2016-04-13T05:39:15.607Z,20
2016-04-13T05:40:16.626Z,20
2016-04-13T05:41:17.597Z,20
2016-04-13T05:42:18.678Z,20
2016-04-13T05:43:19.743Z,20
2016-04-13T05:44:20.824Z,20
2016-04-13T05:45:21.905Z,20
2016-04-13T05:46:22.985Z,20
2016-04-13T05:47:24.066Z,20
2016-04-13T05:48:25.147Z,20
2016-04-13T05:49:26.274Z,20.1
2016-04-13T05:50:27.324Z,20.1
2016-04-13T05:51:28.374Z,20.1
2016-04-13T05:52:29.470Z,20
2016-04-13T05:53:30.535Z,20.1
2016-04-13T05:54:31.617Z,20
2016-04-13T05:55:32.807Z,20
2016-04-13T05:56:33.890Z,20
2016-04-13T05:57:34.846Z,20
2016-04-13T05:58:35.927Z,20
2016-04-13T05:59:37.179Z,20
2016-04-13T06:00:38.073Z,20
2016-04-13T06:01:39.170Z,20
2016-04-13T06:02:40.250Z,20
2016-04-13T06:03:41.331Z,20
2016-04-13T06:04:42.395Z,20
2016-04-13T06:05:43.478Z,20
2016-04-13T06:06:44.542Z,20
2016-04-13T06:07:45.639Z,20
2016-04-13T06:08:46.704Z,20
2016-04-13T06:09:47.863Z,20.1
2016-04-13T06:10:48.991Z,20
2016-04-13T06:11:50.056Z,20
2016-04-13T06:12:51.012Z,20
2016-04-13T06:13:52.092Z,20
2016-04-13T06:14:53.172Z,20
2016-04-13T06:15:54.254Z,19.9
2016-04-13T06:16:55.444Z,20
2016-04-13T06:17:56.399Z,20
2016-04-13T06:18:57.730Z,20
2016-04-13T06:21:00.283Z,20
2016-04-13T06:22:01.535Z,20
2016-04-13T06:23:02.805Z,20
2016-04-13T06:24:04.135Z,20
2016-04-13T06:25:05.590Z,20
2016-04-13T06:26:06.812Z,20
2016-04-13T06:27:08.127Z,20
2016-04-13T06:28:09.599Z,20
2016-04-13T06:29:10.570Z,20
2016-04-13T06:30:11.823Z,20
2016-04-13T06:31:12.716Z,20.1
2016-04-13T06:32:13.797Z,20
2016-04-13T06:33:14.878Z,20
2016-04-13T06:34:16.208Z,20
2016-04-13T06:35:17.289Z,20
2016-04-13T06:36:18.370Z,20
2016-04-13T06:37:19.560Z,20
2016-04-13T06:38:20.517Z,20
2016-04-13T06:39:21.597Z,20
2016-04-13T06:40:22.739Z,20
2016-04-13T06:41:23.868Z,20
2016-04-13T06:42:24.949Z,20
2016-04-13T06:43:26.295Z,20
2016-04-13T06:44:27.500Z,20
2016-04-13T06:45:28.832Z,20
2016-04-13T06:46:29.913Z,20
2016-04-13T06:47:30.994Z,20.1
2016-04-13T06:48:32.074Z,20.1
2016-04-13T06:49:33.155Z,20.1
2016-04-13T06:50:34.298Z,20.1
2016-04-13T06:51:35.333Z,20.1
2016-04-13T06:52:36.385Z,20.1
2016-04-13T06:53:37.465Z,20.1
2016-04-13T06:54:38.546Z,20.1
2016-04-13T06:55:39.627Z,20.1
2016-04-13T06:56:40.708Z,20.2
2016-04-13T06:57:41.788Z,20.2
2016-04-13T06:58:42.870Z,20.2
2016-04-13T06:59:43.951Z,20.2
2016-04-13T07:00:45.078Z,20.2
2016-04-13T07:01:46.096Z,20.3
2016-04-13T07:02:47.177Z,20.3
2016-04-13T07:03:48.258Z,20.4
2016-04-13T07:04:49.354Z,20.4
2016-04-13T07:05:50.435Z,20.4
2016-04-13T07:06:51.609Z,20.5
2016-04-13T07:07:52.565Z,20.5
2016-04-13T07:08:53.661Z,20.5
2016-04-13T07:09:54.727Z,20.6
2016-04-13T07:10:55.855Z,20.6
2016-04-13T07:11:56.872Z,20.7
2016-04-13T07:12:57.985Z,20.7
2016-04-13T07:13:59.035Z,20.7
2016-04-13T07:14:59.850Z,20.7
2016-04-13T07:16:00.822Z,20.8
2016-04-13T07:17:01.527Z,20.8
2016-04-13T07:18:02.342Z,20.9
2016-04-13T07:19:03.158Z,20.9
2016-04-13T07:20:03.988Z,20.9
2016-04-13T07:21:05.008Z,20.9
2016-04-13T07:22:05.900Z,20.9
2016-04-13T07:23:06.716Z,20.9
2016-04-13T07:25:07.846Z,21
2016-04-13T07:26:08.411Z,21.1
2016-04-13T07:27:08.991Z,21.1
2016-04-13T07:28:09.557Z,21.1
2016-04-13T07:29:10.138Z,21.1
2016-04-13T07:30:10.812Z,21.2
2016-04-13T07:31:11.315Z,21.3
2016-04-13T07:32:12.333Z,21.3
2016-04-13T07:33:12.648Z,21.3
2016-04-13T07:34:12.964Z,21.3
2016-04-13T07:35:13.278Z,21.4
2016-04-13T07:36:13.595Z,21.4
2016-04-13T07:37:13.909Z,21.4
2016-04-13T07:38:14.240Z,21.5
2016-04-13T07:39:14.540Z,21.5
2016-04-13T07:40:14.886Z,21.5
2016-04-13T07:41:15.358Z,21.5
2016-04-13T07:42:16.267Z,21.5
2016-04-13T07:43:16.331Z,21.6
2016-04-13T07:44:16.381Z,21.5
2016-04-13T07:45:16.586Z,21.6
2016-04-13T07:46:16.527Z,21.6
2016-04-13T07:47:16.577Z,21.7
2016-04-13T07:48:16.641Z,21.6
2016-04-13T07:49:16.738Z,21.7
2016-04-13T07:50:16.772Z,21.6
2016-04-13T07:51:16.900Z,21.7
2016-04-13T07:52:17.903Z,21.7
2016-04-13T07:53:17.968Z,21.7
2016-04-13T07:54:18.033Z,21.7
2016-04-13T07:55:18.098Z,21.7
2016-04-13T07:56:17.898Z,21.7
2016-04-13T07:57:17.713Z,21.7
2016-04-13T07:58:17.528Z,21.8
2016-04-13T07:59:17.594Z,21.8
2016-04-13T08:00:17.643Z,21.7
2016-04-13T08:01:17.771Z,21.8
2016-04-13T08:02:18.790Z,21.8
2016-04-13T08:03:18.854Z,21.8
2016-04-13T08:04:19.029Z,21.8
2016-04-13T08:05:18.718Z,21.8
2016-04-13T08:06:18.643Z,21.8
2016-04-13T08:07:18.349Z,21.9
2016-04-13T08:08:18.153Z,21.8
2016-04-13T08:09:17.969Z,21.9
2016-04-13T08:10:17.768Z,21.9
2016-04-13T08:11:17.630Z,21.9
2016-04-13T08:12:18.649Z,21.9
2016-04-13T08:13:18.463Z,21.9
2016-04-13T08:14:18.264Z,21.9
2016-04-13T08:15:18.094Z,21.9
2016-04-13T08:16:17.878Z,21.9
2016-04-13T08:17:17.694Z,21.9
2016-04-13T08:18:17.493Z,21.9
2016-04-13T08:19:17.433Z,22
2016-04-13T08:20:17.124Z,21.9
2016-04-13T08:21:17.001Z,22
2016-04-13T08:22:18.035Z,22
2016-04-13T08:23:17.819Z,22
2016-04-13T08:24:17.760Z,22
2016-04-13T08:25:17.560Z,22
2016-04-13T08:26:17.358Z,22
2016-04-13T08:27:17.049Z,22.1
2016-04-13T08:28:16.848Z,22.1
2016-04-13T08:29:17.179Z,22.2
2016-04-13T08:30:17.744Z,22.2
2016-04-13T08:31:18.371Z,22.3
2016-04-13T08:32:19.515Z,22.4
2016-04-13T08:33:19.955Z,22.5
2016-04-13T08:34:20.645Z,22.5
2016-04-13T08:35:21.101Z,22.7
2016-04-13T08:36:21.541Z,22.7
2016-04-13T08:37:21.857Z,22.8
2016-04-13T08:38:22.156Z,22.9
2016-04-13T08:39:22.347Z,22.9
2016-04-13T08:40:22.411Z,22.9
2016-04-13T08:41:22.555Z,22.9
2016-04-13T08:42:23.558Z,23
2016-04-13T08:43:23.607Z,22.9
2016-04-13T08:44:23.672Z,22.9
2016-04-13T08:45:24.096Z,22.9
2016-04-13T08:46:24.302Z,22.8
2016-04-13T08:47:24.883Z,22.8
2016-04-13T08:48:25.449Z,22.7
2016-04-13T08:49:26.014Z,22.7
2016-04-13T08:51:27.707Z,22.6
2016-04-13T08:52:28.741Z,22.6
2016-04-13T08:53:29.665Z,22.5
2016-04-13T08:54:30.621Z,22.5
2016-04-13T08:55:31.952Z,22.5
2016-04-13T08:56:33.268Z,22.5
2016-04-13T08:57:34.989Z,22.4
2016-04-13T08:58:36.429Z,22.4
2016-04-13T08:59:37.778Z,22.3
2016-04-13T09:00:39.202Z,22.4
2016-04-13T09:01:40.737Z,22.4
2016-04-13T09:02:41.739Z,22.4
2016-04-13T09:03:43.320Z,22.3
2016-04-13T09:04:44.884Z,22.3
2016-04-13T09:05:46.465Z,22.3
2016-04-13T09:06:48.078Z,22.4
2016-04-13T09:07:49.628Z,22.3
2016-04-13T09:08:51.208Z,22.3
2016-04-13T09:09:52.789Z,22.3
2016-04-13T09:10:54.495Z,22.3
2016-04-13T09:11:56.013Z,22.4
2016-04-13T09:12:57.031Z,22.3
2016-04-13T09:13:58.612Z,22.4
2016-04-13T09:15:00.194Z,22.3
2016-04-13T09:16:01.883Z,22.3
2016-04-13T09:17:03.480Z,22.3
2016-04-13T09:18:04.935Z,22.3
2016-04-13T09:19:02.735Z,22.3
2016-04-13T09:20:00.613Z,22.3
2016-04-13T09:20:58.272Z,22.3
2016-04-13T09:21:56.119Z,22.3
2016-04-13T09:22:57.136Z,22.3
2016-04-13T09:23:54.921Z,22.3
2016-04-13T09:24:52.813Z,22.3
2016-04-13T09:25:50.488Z,22.3
2016-04-13T09:26:48.241Z,22.3
2016-04-13T09:27:46.041Z,22.3
2016-04-13T09:28:43.810Z,22.3
2016-04-13T09:29:41.593Z,22.3
2016-04-13T09:30:43.174Z,22.4
2016-04-13T09:31:44.817Z,22.4
2016-04-13T09:32:45.835Z,22.4
2016-04-13T09:33:47.415Z,22.4
2016-04-13T09:34:48.997Z,22.5
2016-04-13T09:35:50.312Z,22.5
2016-04-13T09:36:51.892Z,22.5
2016-04-13T09:37:53.474Z,22.5
2016-04-13T09:38:55.070Z,22.5
2016-04-13T09:39:56.761Z,22.5
2016-04-13T09:40:58.341Z,22.5
2016-04-13T09:41:59.609Z,22.5
2016-04-13T09:43:00.644Z,22.5
2016-04-13T09:44:01.708Z,22.5
2016-04-13T09:45:02.539Z,22.5
2016-04-13T09:46:03.370Z,22.5
2016-04-13T09:47:04.169Z,22.5
2016-04-13T09:48:04.985Z,22.4
2016-04-13T09:49:05.550Z,22.4
2016-04-13T09:50:06.116Z,22.4
2016-04-13T09:51:06.697Z,22.4
2016-04-13T09:52:07.089Z,22.4
2016-04-13T09:53:08.092Z,22.4
2016-04-13T09:54:08.400Z,22.4
2016-04-13T09:55:08.713Z,22.4
2016-04-13T09:56:09.016Z,22.4
2016-04-13T09:57:09.457Z,22.4
2016-04-13T09:58:09.647Z,22.3
2016-04-13T09:59:09.979Z,22.4
2016-04-13T10:00:10.286Z,22.3
2016-04-13T10:01:10.599Z,22.4
2016-04-13T10:02:11.211Z,22.3
2016-04-13T10:03:12.230Z,22.3
2016-04-13T10:04:12.802Z,22.3
2016-04-13T10:05:13.382Z,22.3
2016-04-13T10:06:13.948Z,22.3
2016-04-13T10:07:14.622Z,22.4
2016-04-13T10:08:15.078Z,22.4
2016-04-13T10:09:15.642Z,22.3
2016-04-13T10:10:16.317Z,22.3
2016-04-13T10:11:16.914Z,22.4
2016-04-13T10:12:17.511Z,22.3
2016-04-13T10:13:18.419Z,22.3
2016-04-13T10:15:21.691Z,22.3
2016-04-13T10:16:21.005Z,22.4
2016-04-13T10:17:21.712Z,22.3
2016-04-13T10:18:22.777Z,22.3
2016-04-13T10:19:23.858Z,22.3
2016-04-13T10:20:24.923Z,22.3
2016-04-13T10:21:26.253Z,22.2
2016-04-13T10:22:27.631Z,22.2
2016-04-13T10:23:28.650Z,22.2
2016-04-13T10:24:29.980Z,22.2
2016-04-13T10:25:31.561Z,22.1
2016-04-13T10:26:33.142Z,22.1
2016-04-13T10:27:34.723Z,22.1
2016-04-13T10:28:36.304Z,22.1
2016-04-13T10:29:34.088Z,22.1
2016-04-13T10:30:31.863Z,22.1
2016-04-13T10:31:29.647Z,22.1
2016-04-13T10:32:27.509Z,22
2016-04-13T10:33:28.512Z,22
2016-04-13T10:34:26.545Z,22
2016-04-13T10:35:24.689Z,22
2016-04-13T10:36:22.614Z,22
2016-04-13T10:37:20.881Z,21.9
2016-04-13T10:38:19.179Z,21.9
2016-04-13T10:39:17.464Z,21.9
2016-04-13T10:40:15.748Z,21.9
2016-04-13T10:41:14.031Z,21.9
2016-04-13T10:42:12.393Z,21.9
2016-04-13T10:43:13.396Z,21.9
2016-04-13T10:44:11.681Z,21.9
2016-04-13T10:45:10.245Z,21.8
2016-04-13T10:46:08.763Z,21.8
2016-04-13T10:47:07.297Z,21.8
2016-04-13T10:48:06.097Z,21.8
2016-04-13T10:49:05.006Z,21.8
2016-04-13T10:50:03.680Z,21.8
2016-04-13T10:51:02.480Z,21.8
2016-04-13T10:52:01.326Z,21.8
2016-04-13T10:53:02.344Z,21.7
2016-04-13T10:54:01.504Z,21.7
2016-04-13T10:55:01.178Z,21.8
2016-04-13T10:56:01.806Z,21.7
2016-04-13T10:56:59.199Z,21.7
2016-04-13T10:58:01.061Z,21.7
2016-04-13T10:59:04.236Z,21.7
2016-04-13T10:59:57.316Z,21.7
2016-04-13T11:01:02.173Z,21.7
2016-04-13T11:01:57.736Z,21.7
2016-04-13T11:06:54.072Z,21.7
2016-04-13T11:09:51.518Z,21.7
2016-04-13T11:12:51.211Z,21.7
2016-04-13T11:14:57.460Z,21.7
2016-04-13T11:18:49.015Z,21.7
2016-04-13T11:20:47.681Z,21.7
2016-04-13T11:22:48.296Z,21.7
2016-04-13T11:23:47.863Z,21.6
2016-04-13T11:24:47.414Z,21.6
2016-04-13T11:25:47.213Z,21.6
2016-04-13T11:26:47.045Z,21.6
2016-04-13T11:27:46.594Z,21.6
2016-04-13T11:28:46.129Z,21.6
2016-04-13T11:29:45.945Z,21.6
2016-04-13T11:30:45.761Z,21.6
2016-04-13T11:31:45.622Z,21.6
2016-04-13T11:32:46.640Z,21.6
2016-04-13T11:33:46.441Z,21.7
2016-04-13T11:34:46.255Z,21.6
2016-04-13T11:35:46.071Z,21.6
2016-04-13T11:36:45.870Z,21.7
2016-04-13T11:37:45.685Z,21.6
2016-04-13T11:38:45.610Z,21.6
2016-04-13T11:39:45.299Z,21.6
2016-04-13T11:40:45.224Z,21.6
2016-04-13T11:41:44.977Z,21.6
2016-04-13T11:42:45.995Z,21.5
2016-04-13T11:43:46.045Z,21.5
2016-04-13T11:44:46.110Z,21.5
2016-04-13T11:45:46.190Z,21.5
2016-04-13T11:46:46.351Z,21.5
2016-04-13T11:47:46.290Z,21.5
2016-04-13T11:48:46.356Z,21.5
2016-04-13T11:49:46.421Z,21.6
2016-04-13T11:50:46.486Z,21.5
2016-04-13T11:51:46.597Z,21.5
2016-04-13T11:52:47.741Z,21.5
2016-04-13T11:53:47.681Z,21.5
2016-04-13T11:54:47.747Z,21.5
2016-04-13T11:55:47.812Z,21.5
2016-04-13T11:56:48.127Z,21.5
2016-04-13T11:57:48.442Z,21.6
2016-04-13T11:58:48.757Z,21.5
2016-04-13T11:59:49.181Z,21.5
2016-04-13T12:00:49.388Z,21.5
2016-04-13T12:01:49.766Z,21.5
2016-04-13T12:02:50.783Z,21.5
2016-04-13T12:03:51.099Z,21.5
2016-04-13T12:04:51.414Z,21.5
2016-04-13T12:05:51.730Z,21.5
2016-04-13T12:06:52.044Z,21.5
2016-04-13T12:07:52.360Z,21.5
2016-04-13T12:08:52.691Z,21.6
2016-04-13T12:09:52.991Z,21.5
2016-04-13T12:10:53.306Z,21.5
2016-04-13T12:11:53.684Z,21.6
2016-04-13T12:12:54.749Z,21.5
2016-04-13T12:13:55.267Z,21.5
2016-04-13T12:14:55.614Z,21.5
2016-04-13T12:15:56.008Z,21.5
2016-04-13T12:16:56.213Z,21.5
2016-04-13T12:17:56.544Z,21.5
2016-04-13T12:18:56.843Z,21.5
2016-04-13T12:19:57.158Z,21.5
2016-04-13T12:20:57.599Z,21.5
2016-04-13T12:21:57.960Z,21.5
2016-04-13T12:22:58.885Z,21.5
2016-04-13T12:23:59.185Z,21.5
2016-04-13T12:24:59.749Z,21.5
2016-04-13T12:26:00.331Z,21.5
2016-04-13T12:27:00.896Z,21.5
2016-04-13T12:28:01.462Z,21.5
2016-04-13T12:29:02.042Z,21.5
2016-04-13T12:30:02.717Z,21.5
2016-04-13T12:31:02.923Z,21.5
2016-04-13T12:32:03.284Z,21.5
2016-04-13T12:33:04.304Z,21.5
2016-04-13T12:34:04.634Z,21.5
2016-04-13T12:35:04.949Z,21.4
2016-04-13T12:36:05.514Z,21.4
2016-04-13T12:37:06.078Z,21.5
2016-04-13T12:38:06.660Z,21.5
2016-04-13T12:39:07.225Z,21.5
2016-04-13T12:40:07.806Z,21.5
2016-04-13T12:41:08.372Z,21.5
2016-04-13T12:42:09.109Z,21.5
2016-04-13T12:43:10.017Z,21.5
2016-04-13T12:44:10.583Z,21.5
2016-04-13T12:45:11.147Z,21.4
2016-04-13T12:46:11.728Z,21.5
2016-04-13T12:47:12.044Z,21.4
2016-04-13T12:48:12.608Z,21.4
2016-04-13T12:49:12.939Z,21.5
2016-04-13T12:50:13.239Z,21.4
2016-04-13T12:51:13.555Z,21.5
2016-04-13T12:52:13.933Z,21.5
2016-04-13T12:53:15.075Z,21.4
2016-04-13T12:54:15.265Z,21.4
2016-04-13T12:55:15.705Z,21.4
2016-04-13T12:56:15.896Z,21.4
2016-04-13T12:57:16.227Z,21.4
2016-04-13T12:58:16.558Z,21.4
2016-04-13T12:59:16.857Z,21.4
2016-04-13T13:00:17.173Z,21.4
2016-04-13T13:01:17.487Z,21.4
2016-04-13T13:02:18.115Z,21.4
2016-04-13T13:03:19.134Z,21.4
2016-04-13T13:04:19.699Z,21.4
2016-04-13T13:05:20.280Z,21.4
2016-04-13T13:06:20.847Z,21.4
2016-04-13T13:07:21.412Z,21.4
2016-04-13T13:08:21.993Z,21.4
2016-04-13T13:09:22.559Z,21.4
2016-04-13T13:10:23.123Z,21.4
2016-04-13T13:11:23.705Z,21.3
2016-04-13T13:12:24.441Z,21.4
2016-04-13T13:13:25.351Z,21.4
2016-04-13T13:14:25.916Z,21.3
2016-04-13T13:15:26.606Z,21.3
2016-04-13T13:16:27.062Z,21.3
2016-04-13T13:17:27.627Z,21.4
2016-04-13T13:18:28.442Z,21.4
2016-04-13T13:19:29.258Z,21.4
2016-04-13T13:20:30.088Z,21.4
2016-04-13T13:21:31.028Z,21.4
2016-04-13T13:22:31.797Z,21.4
2016-04-13T13:23:32.815Z,21.3
2016-04-13T13:24:33.755Z,21.3
2016-04-13T13:25:34.460Z,21.3
2016-04-13T13:26:35.291Z,21.3
2016-04-13T13:27:36.107Z,21.3
2016-04-13T13:28:36.922Z,21.3
2016-04-13T13:29:37.878Z,21.3
2016-04-13T13:30:38.584Z,21.3
2016-04-13T13:31:39.399Z,21.3
2016-04-13T13:32:40.277Z,21.3
2016-04-13T13:33:41.295Z,21.3
2016-04-13T13:34:42.110Z,21.3
2016-04-13T13:35:42.941Z,21.3
2016-04-13T13:36:43.757Z,21.4
2016-04-13T13:37:44.587Z,21.4
2016-04-13T13:38:45.668Z,21.3
2016-04-13T13:39:46.733Z,21.3
2016-04-13T13:40:47.814Z,21.3
2016-04-13T13:41:48.895Z,21.3
2016-04-13T13:42:50.022Z,21.3
2016-04-13T13:43:51.041Z,21.3
2016-04-13T13:44:52.121Z,21.3
2016-04-13T13:45:53.312Z,21.3
2016-04-13T13:46:54.283Z,21.3
2016-04-13T13:47:55.347Z,21.3
2016-04-13T13:48:56.429Z,21.3
2016-04-13T13:49:57.494Z,21.3